Mohyliv-Podil's'Kyi, Ukraine
Current Conditions -  °F | °C
As of 5:30 AM on Sunday 26 Oct 2014 (Local Time) from LUBL Reporting Station
Clear Clear  
Wind Chill: 11°   Ceiling: Unl
Heat Index: 21°   Visibility: 6mi
Dew Point: 16°   Wind: 9mph
Humidity: 80%   Direction: NA
Pressure: 30.53"   Gusts: NA
Location:  48.45°N, 27.79°E
Report Text: LUBL 260230Z AUTO VRB08KT 9999 NCD M06/M09 Q1034
Loading
Personal Weather Stations






























Interactive Weather Map
Tropical Storm Tracking
New forecast layout! Learn more

10-Day Weather Forecast

Advertisements
Track Severe Weather on mobile